sensor_id;sensor_type;location;lat;lon;timestamp;temperature;humidity
23669;DHT22;12011;47.422;15.018;2023-01-08T00:01:52;-0.30;99.90
23669;DHT22;12011;47.422;15.018;2023-01-08T00:04:25;-0.30;99.90
23669;DHT22;12011;47.422;15.018;2023-01-08T00:07:00;-0.30;99.90
23669;DHT22;12011;47.422;15.018;2023-01-08T00:09:30;-0.20;99.90
23669;DHT22;12011;47.422;15.018;2023-01-08T00:12:03;-0.20;99.90
23669;DHT22;12011;47.422;15.018;2023-01-08T00:14:37;-0.20;99.90
23669;DHT22;12011;47.422;15.018;2023-01-08T00:17:09;-0.20;99.90
23669;DHT22;12011;47.422;15.018;2023-01-08T00:19:41;-0.20;99.90
23669;DHT22;12011;47.422;15.018;2023-01-08T00:22:12;-0.20;99.90
23669;DHT22;12011;47.422;15.018;2023-01-08T00:24:42;-0.20;99.90
23669;DHT22;12011;47.422;15.018;2023-01-08T00:27:12;-0.20;99.90
23669;DHT22;12011;47.422;15.018;2023-01-08T00:29:41;0.10;99.90
23669;DHT22;12011;47.422;15.018;2023-01-08T00:32:11;-0.20;99.90
23669;DHT22;12011;47.422;15.018;2023-01-08T00:34:46;-0.20;99.90
23669;DHT22;12011;47.422;15.018;2023-01-08T00:37:16;-0.20;99.90
23669;DHT22;12011;47.422;15.018;2023-01-08T00:39:45;-0.20;99.90
23669;DHT22;12011;47.422;15.018;2023-01-08T00:42:15;-0.20;99.90
23669;DHT22;12011;47.422;15.018;2023-01-08T00:44:44;-0.20;99.90
23669;DHT22;12011;47.422;15.018;2023-01-08T00:47:14;-0.10;99.90
23669;DHT22;12011;47.422;15.018;2023-01-08T00:49:46;-0.20;99.90
23669;DHT22;12011;47.422;15.018;2023-01-08T00:52:16;-0.20;99.90
23669;DHT22;12011;47.422;15.018;2023-01-08T00:54:45;-0.20;99.90
23669;DHT22;12011;47.422;15.018;2023-01-08T00:57:15;-0.20;99.90
23669;DHT22;12011;47.422;15.018;2023-01-08T00:59:44;-0.20;99.90
23669;DHT22;12011;47.422;15.018;2023-01-08T01:02:15;-0.20;99.90
23669;DHT22;12011;47.422;15.018;2023-01-08T01:04:49;0.00;99.90
23669;DHT22;12011;47.422;15.018;2023-01-08T01:07:19;-0.20;99.90
23669;DHT22;12011;47.422;15.018;2023-01-08T01:09:49;-0.20;99.90
23669;DHT22;12011;47.422;15.018;2023-01-08T01:12:19;-0.10;99.90
23669;DHT22;12011;47.422;15.018;2023-01-08T01:14:48;-0.20;99.90
23669;DHT22;12011;47.422;15.018;2023-01-08T01:17:19;-0.20;99.90
23669;DHT22;12011;47.422;15.018;2023-01-08T01:19:51;-0.30;99.90
23669;DHT22;12011;47.422;15.018;2023-01-08T01:22:21;-0.30;99.90
23669;DHT22;12011;47.422;15.018;2023-01-08T01:24:51;-0.40;99.90
23669;DHT22;12011;47.422;15.018;2023-01-08T01:27:20;-0.10;99.90
23669;DHT22;12011;47.422;15.018;2023-01-08T01:29:53;-0.40;99.90
23669;DHT22;12011;47.422;15.018;2023-01-08T01:32:22;-0.40;99.90
23669;DHT22;12011;47.422;15.018;2023-01-08T01:34:56;-0.30;99.90
23669;DHT22;12011;47.422;15.018;2023-01-08T01:37:34;-0.40;99.90
23669;DHT22;12011;47.422;15.018;2023-01-08T01:40:06;-0.30;99.90
23669;DHT22;12011;47.422;15.018;2023-01-08T01:42:38;-0.30;99.90
23669;DHT22;12011;47.422;15.018;2023-01-08T01:45:18;-0.30;99.90
23669;DHT22;12011;47.422;15.018;2023-01-08T01:47:54;-0.30;99.90
23669;DHT22;12011;47.422;15.018;2023-01-08T01:50:34;-0.30;99.90
23669;DHT22;12011;47.422;15.018;2023-01-08T01:53:12;-0.20;99.90
23669;DHT22;12011;47.422;15.018;2023-01-08T01:55:47;-0.30;99.90
23669;DHT22;12011;47.422;15.018;2023-01-08T01:58:22;-0.30;99.90
23669;DHT22;12011;47.422;15.018;2023-01-08T02:01:04;-0.30;99.90
23669;DHT22;12011;47.422;15.018;2023-01-08T02:03:38;-0.30;99.90
23669;DHT22;12011;47.422;15.018;2023-01-08T02:06:29;-0.30;99.90
23669;DHT22;12011;47.422;15.018;2023-01-08T02:09:12;-0.30;99.90
23669;DHT22;12011;47.422;15.018;2023-01-08T02:11:55;-0.30;99.90
23669;DHT22;12011;47.422;15.018;2023-01-08T02:15:08;-0.30;99.90
23669;DHT22;12011;47.422;15.018;2023-01-08T02:17:47;-0.30;99.90
23669;DHT22;12011;47.422;15.018;2023-01-08T02:20:22;-0.30;99.90
23669;DHT22;12011;47.422;15.018;2023-01-08T02:23:15;-0.30;99.90
23669;DHT22;12011;47.422;15.018;2023-01-08T02:26:05;-0.30;99.90
23669;DHT22;12011;47.422;15.018;2023-01-08T02:28:50;-0.10;99.90
23669;DHT22;12011;47.422;15.018;2023-01-08T02:31:27;-0.30;99.90
23669;DHT22;12011;47.422;15.018;2023-01-08T02:34:01;-0.40;99.90
23669;DHT22;12011;47.422;15.018;2023-01-08T02:36:41;-0.40;99.90
23669;DHT22;12011;47.422;15.018;2023-01-08T02:39:33;-0.50;99.90
23669;DHT22;12011;47.422;15.018;2023-01-08T02:42:19;-0.50;99.90
23669;DHT22;12011;47.422;15.018;2023-01-08T02:45:04;-0.50;99.90
23669;DHT22;12011;47.422;15.018;2023-01-08T02:47:43;-0.50;99.90
23669;DHT22;12011;47.422;15.018;2023-01-08T02:50:23;-0.50;99.90
23669;DHT22;12011;47.422;15.018;2023-01-08T02:53:07;-0.50;99.90
23669;DHT22;12011;47.422;15.018;2023-01-08T02:55:42;-0.50;99.90
23669;DHT22;12011;47.422;15.018;2023-01-08T02:58:22;-0.50;99.90
23669;DHT22;12011;47.422;15.018;2023-01-08T03:00:54;-0.60;99.90
23669;DHT22;12011;47.422;15.018;2023-01-08T03:03:26;-0.60;99.90
23669;DHT22;12011;47.422;15.018;2023-01-08T03:06:02;-0.60;99.90
23669;DHT22;12011;47.422;15.018;2023-01-08T03:08:40;-0.70;99.90
23669;DHT22;12011;47.422;15.018;2023-01-08T03:11:13;-0.80;99.90
23669;DHT22;12011;47.422;15.018;2023-01-08T03:14:01;-0.80;99.90
23669;DHT22;12011;47.422;15.018;2023-01-08T03:16:41;-0.80;99.90
23669;DHT22;12011;47.422;15.018;2023-01-08T03:19:19;-0.80;99.90
23669;DHT22;12011;47.422;15.018;2023-01-08T03:21:51;-0.80;99.90
23669;DHT22;12011;47.422;15.018;2023-01-08T03:24:28;-0.80;99.90
23669;DHT22;12011;47.422;15.018;2023-01-08T03:27:09;-0.80;99.90
23669;DHT22;12011;47.422;15.018;2023-01-08T03:29:48;-0.80;99.90
23669;DHT22;12011;47.422;15.018;2023-01-08T03:32:31;-0.80;99.90
23669;DHT22;12011;47.422;15.018;2023-01-08T03:35:08;-0.30;99.90
23669;DHT22;12011;47.422;15.018;2023-01-08T03:37:44;-0.70;99.90
23669;DHT22;12011;47.422;15.018;2023-01-08T03:40:21;-0.70;99.90
23669;DHT22;12011;47.422;15.018;2023-01-08T03:42:58;-0.70;99.90
23669;DHT22;12011;47.422;15.018;2023-01-08T03:45:33;-0.70;99.90
23669;DHT22;12011;47.422;15.018;2023-01-08T03:48:07;-0.70;99.90
23669;DHT22;12011;47.422;15.018;2023-01-08T03:50:39;-0.60;99.90
23669;DHT22;12011;47.422;15.018;2023-01-08T03:53:09;-0.60;99.90
23669;DHT22;12011;47.422;15.018;2023-01-08T03:55:40;-0.60;99.90
23669;DHT22;12011;47.422;15.018;2023-01-08T03:58:16;-0.60;99.90
23669;DHT22;12011;47.422;15.018;2023-01-08T04:00:48;-0.50;99.90
23669;DHT22;12011;47.422;15.018;2023-01-08T04:03:20;-0.50;99.90
23669;DHT22;12011;47.422;15.018;2023-01-08T04:05:51;-0.50;99.90
23669;DHT22;12011;47.422;15.018;2023-01-08T04:08:20;-0.50;99.90
23669;DHT22;12011;47.422;15.018;2023-01-08T04:10:54;-0.20;99.90
23669;DHT22;12011;47.422;15.018;2023-01-08T04:13:23;-0.50;99.90
23669;DHT22;12011;47.422;15.018;2023-01-08T04:15:57;-0.40;99.90
23669;DHT22;12011;47.422;15.018;2023-01-08T04:18:28;-0.50;99.90
23669;DHT22;12011;47.422;15.018;2023-01-08T04:21:00;-0.50;99.90
23669;DHT22;12011;47.422;15.018;2023-01-08T04:23:32;-0.50;99.90
23669;DHT22;12011;47.422;15.018;2023-01-08T04:26:03;-0.50;99.90
23669;DHT22;12011;47.422;15.018;2023-01-08T04:28:34;-0.50;99.90
23669;DHT22;12011;47.422;15.018;2023-01-08T04:31:09;-0.50;99.90
23669;DHT22;12011;47.422;15.018;2023-01-08T04:33:39;-0.50;99.90
23669;DHT22;12011;47.422;15.018;2023-01-08T04:36:16;-0.60;99.90
23669;DHT22;12011;47.422;15.018;2023-01-08T04:38:50;-0.60;99.90
23669;DHT22;12011;47.422;15.018;2023-01-08T04:41:24;-0.60;99.90
23669;DHT22;12011;47.422;15.018;2023-01-08T04:43:54;-0.60;99.90
23669;DHT22;12011;47.422;15.018;2023-01-08T04:46:26;-0.60;99.90
23669;DHT22;12011;47.422;15.018;2023-01-08T04:48:55;-0.60;99.90
23669;DHT22;12011;47.422;15.018;2023-01-08T04:51:27;-0.40;99.90
23669;DHT22;12011;47.422;15.018;2023-01-08T04:53:58;-0.60;99.90
23669;DHT22;12011;47.422;15.018;2023-01-08T04:56:30;-0.60;99.90
23669;DHT22;12011;47.422;15.018;2023-01-08T04:58:59;-0.60;99.90
23669;DHT22;12011;47.422;15.018;2023-01-08T05:01:31;-0.70;99.90
23669;DHT22;12011;47.422;15.018;2023-01-08T05:04:06;-0.70;99.90
23669;DHT22;12011;47.422;15.018;2023-01-08T05:06:39;-0.70;99.90
23669;DHT22;12011;47.422;15.018;2023-01-08T05:09:12;-0.70;99.90
23669;DHT22;12011;47.422;15.018;2023-01-08T05:11:41;-0.70;99.90
23669;DHT22;12011;47.422;15.018;2023-01-08T05:14:11;-0.70;99.90
23669;DHT22;12011;47.422;15.018;2023-01-08T05:16:43;-0.80;99.90
23669;DHT22;12011;47.422;15.018;2023-01-08T05:19:16;-0.70;99.90
23669;DHT22;12011;47.422;15.018;2023-01-08T05:21:45;-0.70;99.90
23669;DHT22;12011;47.422;15.018;2023-01-08T05:24:15;-0.70;99.90
23669;DHT22;12011;47.422;15.018;2023-01-08T05:26:44;-0.70;99.90
23669;DHT22;12011;47.422;15.018;2023-01-08T05:29:16;-0.60;99.90
23669;DHT22;12011;47.422;15.018;2023-01-08T05:31:50;-0.70;99.90
23669;DHT22;12011;47.422;15.018;2023-01-08T05:34:28;-0.70;99.90
23669;DHT22;12011;47.422;15.018;2023-01-08T05:36:59;-0.60;99.90
23669;DHT22;12011;47.422;15.018;2023-01-08T05:39:29;-0.70;99.90
23669;DHT22;12011;47.422;15.018;2023-01-08T05:42:00;-0.70;99.90
23669;DHT22;12011;47.422;15.018;2023-01-08T05:44:32;-0.70;99.90
23669;DHT22;12011;47.422;15.018;2023-01-08T05:47:04;-0.40;99.90
23669;DHT22;12011;47.422;15.018;2023-01-08T05:49:34;-0.70;99.90
23669;DHT22;12011;47.422;15.018;2023-01-08T05:52:04;-0.70;99.90
23669;DHT22;12011;47.422;15.018;2023-01-08T05:54:35;0.00;99.90
23669;DHT22;12011;47.422;15.018;2023-01-08T05:57:05;-0.80;99.90
23669;DHT22;12011;47.422;15.018;2023-01-08T05:59:35;-0.80;99.90
23669;DHT22;12011;47.422;15.018;2023-01-08T06:02:08;-0.50;99.90
23669;DHT22;12011;47.422;15.018;2023-01-08T06:04:39;-0.10;99.90
23669;DHT22;12011;47.422;15.018;2023-01-08T06:07:08;-0.90;99.90
23669;DHT22;12011;47.422;15.018;2023-01-08T06:09:38;0.00;99.90
23669;DHT22;12011;47.422;15.018;2023-01-08T06:12:08;-0.90;99.90
23669;DHT22;12011;47.422;15.018;2023-01-08T06:14:38;-0.90;99.90
23669;DHT22;12011;47.422;15.018;2023-01-08T06:17:10;-0.90;99.90
23669;DHT22;12011;47.422;15.018;2023-01-08T06:19:40;-0.70;99.90
23669;DHT22;12011;47.422;15.018;2023-01-08T06:22:11;-0.40;99.90
23669;DHT22;12011;47.422;15.018;2023-01-08T06:24:41;-0.90;99.90
23669;DHT22;12011;47.422;15.018;2023-01-08T06:27:11;-0.90;99.90
23669;DHT22;12011;47.422;15.018;2023-01-08T06:29:40;-0.90;99.90
23669;DHT22;12011;47.422;15.018;2023-01-08T06:32:12;-0.90;99.90
23669;DHT22;12011;47.422;15.018;2023-01-08T06:34:42;-0.90;99.90
23669;DHT22;12011;47.422;15.018;2023-01-08T06:37:11;-0.90;99.90
23669;DHT22;12011;47.422;15.018;2023-01-08T06:39:41;-0.90;99.90
23669;DHT22;12011;47.422;15.018;2023-01-08T06:42:10;-0.90;99.90
23669;DHT22;12011;47.422;15.018;2023-01-08T06:44:40;-0.90;99.90
23669;DHT22;12011;47.422;15.018;2023-01-08T06:47:12;-0.70;99.90
23669;DHT22;12011;47.422;15.018;2023-01-08T06:49:41;-0.80;99.90
23669;DHT22;12011;47.422;15.018;2023-01-08T06:52:11;-0.90;99.90
23669;DHT22;12011;47.422;15.018;2023-01-08T06:54:40;-0.90;99.90
23669;DHT22;12011;47.422;15.018;2023-01-08T06:57:10;-0.20;99.90
23669;DHT22;12011;47.422;15.018;2023-01-08T06:59:39;0.00;99.90
23669;DHT22;12011;47.422;15.018;2023-01-08T07:02:14;-0.90;99.90
23669;DHT22;12011;47.422;15.018;2023-01-08T07:04:44;-1.00;99.90
23669;DHT22;12011;47.422;15.018;2023-01-08T07:07:14;-0.70;99.90
23669;DHT22;12011;47.422;15.018;2023-01-08T07:09:44;-0.40;99.90
23669;DHT22;12011;47.422;15.018;2023-01-08T07:12:13;-1.00;99.90
23669;DHT22;12011;47.422;15.018;2023-01-08T07:14:43;-0.90;99.90
23669;DHT22;12011;47.422;15.018;2023-01-08T07:17:15;-0.10;99.90
23669;DHT22;12011;47.422;15.018;2023-01-08T07:19:45;-0.90;99.90
23669;DHT22;12011;47.422;15.018;2023-01-08T07:22:14;-0.80;99.90
23669;DHT22;12011;47.422;15.018;2023-01-08T07:24:45;-0.80;99.90
23669;DHT22;12011;47.422;15.018;2023-01-08T07:27:14;-0.80;99.90
23669;DHT22;12011;47.422;15.018;2023-01-08T07:29:44;-0.70;99.90
23669;DHT22;12011;47.422;15.018;2023-01-08T07:32:16;0.10;99.90
23669;DHT22;12011;47.422;15.018;2023-01-08T07:34:46;-0.60;99.90
23669;DHT22;12011;47.422;15.018;2023-01-08T07:37:15;-0.70;99.90
23669;DHT22;12011;47.422;15.018;2023-01-08T07:39:45;-0.60;99.90
23669;DHT22;12011;47.422;15.018;2023-01-08T07:42:14;-0.30;99.90
23669;DHT22;12011;47.422;15.018;2023-01-08T07:44:44;-0.60;99.90
23669;DHT22;12011;47.422;15.018;2023-01-08T07:47:16;-0.60;99.90
23669;DHT22;12011;47.422;15.018;2023-01-08T07:49:46;-0.60;99.90
23669;DHT22;12011;47.422;15.018;2023-01-08T07:52:15;-0.60;99.90
23669;DHT22;12011;47.422;15.018;2023-01-08T07:54:45;-0.50;99.90
23669;DHT22;12011;47.422;15.018;2023-01-08T07:57:14;-0.60;99.90
23669;DHT22;12011;47.422;15.018;2023-01-08T07:59:44;-0.60;99.90
23669;DHT22;12011;47.422;15.018;2023-01-08T08:02:16;-0.60;99.90
23669;DHT22;12011;47.422;15.018;2023-01-08T08:04:45;0.10;99.90
23669;DHT22;12011;47.422;15.018;2023-01-08T08:07:15;-0.60;99.90
23669;DHT22;12011;47.422;15.018;2023-01-08T08:09:44;-0.60;99.90
23669;DHT22;12011;47.422;15.018;2023-01-08T08:12:14;-0.50;99.90
23669;DHT22;12011;47.422;15.018;2023-01-08T08:14:44;-0.50;99.90
23669;DHT22;12011;47.422;15.018;2023-01-08T08:17:16;-0.40;99.90
23669;DHT22;12011;47.422;15.018;2023-01-08T08:19:46;-0.40;99.90
23669;DHT22;12011;47.422;15.018;2023-01-08T08:22:16;-0.20;99.90
23669;DHT22;12011;47.422;15.018;2023-01-08T08:24:45;-0.20;99.90
23669;DHT22;12011;47.422;15.018;2023-01-08T08:27:15;-0.10;99.90
23669;DHT22;12011;47.422;15.018;2023-01-08T08:29:44;0.00;99.90
23669;DHT22;12011;47.422;15.018;2023-01-08T08:32:16;0.00;99.90
23669;DHT22;12011;47.422;15.018;2023-01-08T08:34:46;0.20;99.90
23669;DHT22;12011;47.422;15.018;2023-01-08T08:37:15;0.10;99.90
23669;DHT22;12011;47.422;15.018;2023-01-08T08:39:45;0.10;99.90
23669;DHT22;12011;47.422;15.018;2023-01-08T08:42:14;0.00;99.90
23669;DHT22;12011;47.422;15.018;2023-01-08T08:44:44;-0.10;99.90
23669;DHT22;12011;47.422;15.018;2023-01-08T08:47:16;-0.10;99.90
23669;DHT22;12011;47.422;15.018;2023-01-08T08:49:46;-0.20;99.90
23669;DHT22;12011;47.422;15.018;2023-01-08T08:52:16;0.10;99.90
23669;DHT22;12011;47.422;15.018;2023-01-08T08:54:46;0.00;99.90
23669;DHT22;12011;47.422;15.018;2023-01-08T08:57:15;0.00;99.90
23669;DHT22;12011;47.422;15.018;2023-01-08T08:59:45;0.00;99.90
23669;DHT22;12011;47.422;15.018;2023-01-08T09:02:17;-0.10;99.90
23669;DHT22;12011;47.422;15.018;2023-01-08T09:04:46;-0.20;99.90
23669;DHT22;12011;47.422;15.018;2023-01-08T09:07:16;-0.10;99.90
23669;DHT22;12011;47.422;15.018;2023-01-08T09:09:45;-0.10;99.90
23669;DHT22;12011;47.422;15.018;2023-01-08T09:12:15;-0.10;99.90
23669;DHT22;12011;47.422;15.018;2023-01-08T09:14:44;-0.10;99.90
23669;DHT22;12011;47.422;15.018;2023-01-08T09:17:17;0.00;99.90
23669;DHT22;12011;47.422;15.018;2023-01-08T09:19:47;-0.10;99.90
23669;DHT22;12011;47.422;15.018;2023-01-08T09:22:17;0.30;99.90
23669;DHT22;12011;47.422;15.018;2023-01-08T09:24:46;0.10;99.90
23669;DHT22;12011;47.422;15.018;2023-01-08T09:27:16;0.30;99.90
23669;DHT22;12011;47.422;15.018;2023-01-08T09:29:46;0.20;99.90
23669;DHT22;12011;47.422;15.018;2023-01-08T09:32:18;0.40;99.90
23669;DHT22;12011;47.422;15.018;2023-01-08T09:34:48;0.40;99.90
23669;DHT22;12011;47.422;15.018;2023-01-08T09:37:17;0.40;99.90
23669;DHT22;12011;47.422;15.018;2023-01-08T09:39:48;0.40;99.90
23669;DHT22;12011;47.422;15.018;2023-01-08T09:42:22;0.50;99.90
23669;DHT22;12011;47.422;15.018;2023-01-08T09:44:59;0.40;99.90
23669;DHT22;12011;47.422;15.018;2023-01-08T09:47:37;0.90;99.90
23669;DHT22;12011;47.422;15.018;2023-01-08T09:50:13;1.10;99.90
23669;DHT22;12011;47.422;15.018;2023-01-08T09:52:43;1.00;99.90
23669;DHT22;12011;47.422;15.018;2023-01-08T09:55:14;1.20;99.90
23669;DHT22;12011;47.422;15.018;2023-01-08T09:57:45;1.20;99.90
23669;DHT22;12011;47.422;15.018;2023-01-08T10:00:18;1.50;99.90
23669;DHT22;12011;47.422;15.018;2023-01-08T10:02:53;1.60;99.90
23669;DHT22;12011;47.422;15.018;2023-01-08T10:05:26;1.40;99.90
23669;DHT22;12011;47.422;15.018;2023-01-08T10:07:56;1.40;99.90
23669;DHT22;12011;47.422;15.018;2023-01-08T10:10:30;1.20;99.90
23669;DHT22;12011;47.422;15.018;2023-01-08T10:13:02;1.00;99.90
23669;DHT22;12011;47.422;15.018;2023-01-08T10:15:32;1.10;99.90
23669;DHT22;12011;47.422;15.018;2023-01-08T10:18:11;1.50;99.90
23669;DHT22;12011;47.422;15.018;2023-01-08T10:20:44;1.70;99.90
23669;DHT22;12011;47.422;15.018;2023-01-08T10:23:19;2.00;99.90
23669;DHT22;12011;47.422;15.018;2023-01-08T10:25:56;2.40;99.90
23669;DHT22;12011;47.422;15.018;2023-01-08T10:28:32;2.30;99.90
23669;DHT22;12011;47.422;15.018;2023-01-08T10:31:06;2.70;99.90
23669;DHT22;12011;47.422;15.018;2023-01-08T10:33:44;2.70;99.90
23669;DHT22;12011;47.422;15.018;2023-01-08T10:36:17;2.80;99.90
23669;DHT22;12011;47.422;15.018;2023-01-08T10:38:58;2.80;99.90
23669;DHT22;12011;47.422;15.018;2023-01-08T10:41:37;2.80;99.90
23669;DHT22;12011;47.422;15.018;2023-01-08T10:44:16;2.90;99.90
23669;DHT22;12011;47.422;15.018;2023-01-08T10:46:53;3.00;99.90
23669;DHT22;12011;47.422;15.018;2023-01-08T10:49:32;2.90;99.90
23669;DHT22;12011;47.422;15.018;2023-01-08T10:52:05;3.30;99.90
23669;DHT22;12011;47.422;15.018;2023-01-08T10:54:52;3.50;99.90
23669;DHT22;12011;47.422;15.018;2023-01-08T10:57:24;3.70;99.90
23669;DHT22;12011;47.422;15.018;2023-01-08T10:59:55;3.90;99.90
23669;DHT22;12011;47.422;15.018;2023-01-08T11:02:32;4.10;99.90
23669;DHT22;12011;47.422;15.018;2023-01-08T11:05:07;4.00;99.90
23669;DHT22;12011;47.422;15.018;2023-01-08T11:07:39;4.10;99.90
23669;DHT22;12011;47.422;15.018;2023-01-08T11:10:22;4.00;99.90
23669;DHT22;12011;47.422;15.018;2023-01-08T11:12:58;3.80;99.90
23669;DHT22;12011;47.422;15.018;2023-01-08T11:15:36;3.90;99.90
23669;DHT22;12011;47.422;15.018;2023-01-08T11:18:17;4.00;99.90
23669;DHT22;12011;47.422;15.018;2023-01-08T11:20:52;4.20;99.90
23669;DHT22;12011;47.422;15.018;2023-01-08T11:23:24;4.30;99.90
23669;DHT22;12011;47.422;15.018;2023-01-08T11:26:02;4.30;99.90
23669;DHT22;12011;47.422;15.018;2023-01-08T11:28:46;4.20;99.90
23669;DHT22;12011;47.422;15.018;2023-01-08T11:31:27;4.40;99.90
23669;DHT22;12011;47.422;15.018;2023-01-08T11:34:11;4.30;99.90
23669;DHT22;12011;47.422;15.018;2023-01-08T11:36:54;4.10;99.90
23669;DHT22;12011;47.422;15.018;2023-01-08T11:39:34;4.10;99.90
23669;DHT22;12011;47.422;15.018;2023-01-08T11:42:18;4.20;99.90
23669;DHT22;12011;47.422;15.018;2023-01-08T11:45:09;4.30;99.90
23669;DHT22;12011;47.422;15.018;2023-01-08T11:48:07;4.30;99.90
23669;DHT22;12011;47.422;15.018;2023-01-08T11:50:58;4.50;99.90
23669;DHT22;12011;47.422;15.018;2023-01-08T11:53:45;4.70;99.90
23669;DHT22;12011;47.422;15.018;2023-01-08T11:56:24;4.90;99.90
23669;DHT22;12011;47.422;15.018;2023-01-08T11:59:11;4.80;99.90
23669;DHT22;12011;47.422;15.018;2023-01-08T12:01:57;4.90;99.90
23669;DHT22;12011;47.422;15.018;2023-01-08T12:04:56;4.50;99.90
23669;DHT22;12011;47.422;15.018;2023-01-08T12:08:03;4.30;99.90
23669;DHT22;12011;47.422;15.018;2023-01-08T12:10:56;4.40;99.90
23669;DHT22;12011;47.422;15.018;2023-01-08T12:13:47;4.20;99.90
23669;DHT22;12011;47.422;15.018;2023-01-08T12:16:37;4.10;99.90
23669;DHT22;12011;47.422;15.018;2023-01-08T12:19:22;4.20;99.90
23669;DHT22;12011;47.422;15.018;2023-01-08T12:22:21;4.30;99.90
23669;DHT22;12011;47.422;15.018;2023-01-08T12:25:30;4.30;99.90
23669;DHT22;12011;47.422;15.018;2023-01-08T12:28:21;4.20;99.90
23669;DHT22;12011;47.422;15.018;2023-01-08T12:31:27;4.00;99.90
23669;DHT22;12011;47.422;15.018;2023-01-08T12:34:20;3.70;99.90
23669;DHT22;12011;47.422;15.018;2023-01-08T12:37:02;3.70;99.90
23669;DHT22;12011;47.422;15.018;2023-01-08T12:39:45;3.70;99.90
23669;DHT22;12011;47.422;15.018;2023-01-08T12:42:20;3.50;99.90
23669;DHT22;12011;47.422;15.018;2023-01-08T12:44:59;3.40;99.90
23669;DHT22;12011;47.422;15.018;2023-01-08T12:47:34;3.50;99.90
23669;DHT22;12011;47.422;15.018;2023-01-08T12:50:21;3.70;99.90
23669;DHT22;12011;47.422;15.018;2023-01-08T12:53:01;4.10;99.90
23669;DHT22;12011;47.422;15.018;2023-01-08T12:55:43;4.80;99.90
23669;DHT22;12011;47.422;15.018;2023-01-08T12:58:26;4.90;99.90
23669;DHT22;12011;47.422;15.018;2023-01-08T13:01:20;5.00;99.90
23669;DHT22;12011;47.422;15.018;2023-01-08T13:03:57;4.90;99.90
23669;DHT22;12011;47.422;15.018;2023-01-08T13:06:30;5.10;99.90
23669;DHT22;12011;47.422;15.018;2023-01-08T13:09:00;5.30;99.90
23669;DHT22;12011;47.422;15.018;2023-01-08T13:11:32;5.70;99.90
23669;DHT22;12011;47.422;15.018;2023-01-08T13:14:06;5.90;99.90
23669;DHT22;12011;47.422;15.018;2023-01-08T13:16:43;6.20;98.50
23669;DHT22;12011;47.422;15.018;2023-01-08T13:19:42;6.40;97.70
23669;DHT22;12011;47.422;15.018;2023-01-08T13:22:24;6.30;99.90
23669;DHT22;12011;47.422;15.018;2023-01-08T13:25:27;6.00;99.90
23669;DHT22;12011;47.422;15.018;2023-01-08T13:27:58;5.90;99.90
23669;DHT22;12011;47.422;15.018;2023-01-08T13:30:36;5.90;99.90
23669;DHT22;12011;47.422;15.018;2023-01-08T13:33:40;5.80;99.90
23669;DHT22;12011;47.422;15.018;2023-01-08T13:36:26;5.80;99.90
23669;DHT22;12011;47.422;15.018;2023-01-08T13:39:03;5.70;99.90
23669;DHT22;12011;47.422;15.018;2023-01-08T13:41:36;5.40;99.90
23669;DHT22;12011;47.422;15.018;2023-01-08T13:44:21;5.40;99.90
23669;DHT22;12011;47.422;15.018;2023-01-08T13:46:57;5.20;99.90
23669;DHT22;12011;47.422;15.018;2023-01-08T13:49:35;5.00;99.90
23669;DHT22;12011;47.422;15.018;2023-01-08T13:52:28;4.70;99.90
23669;DHT22;12011;47.422;15.018;2023-01-08T13:55:03;4.70;99.90
23669;DHT22;12011;47.422;15.018;2023-01-08T13:57:39;4.60;99.90
23669;DHT22;12011;47.422;15.018;2023-01-08T14:00:20;4.40;99.90
23669;DHT22;12011;47.422;15.018;2023-01-08T14:02:51;4.40;99.90
23669;DHT22;12011;47.422;15.018;2023-01-08T14:05:26;4.30;99.90
23669;DHT22;12011;47.422;15.018;2023-01-08T14:07:59;4.20;99.90
23669;DHT22;12011;47.422;15.018;2023-01-08T14:10:29;4.00;99.90
23669;DHT22;12011;47.422;15.018;2023-01-08T14:13:06;4.10;99.90
23669;DHT22;12011;47.422;15.018;2023-01-08T14:15:38;4.10;99.90
23669;DHT22;12011;47.422;15.018;2023-01-08T14:18:11;4.20;99.90
23669;DHT22;12011;47.422;15.018;2023-01-08T14:20:49;4.10;99.90
23669;DHT22;12011;47.422;15.018;2023-01-08T14:23:26;4.10;99.90
23669;DHT22;12011;47.422;15.018;2023-01-08T14:26:01;4.00;99.90
23669;DHT22;12011;47.422;15.018;2023-01-08T14:28:34;4.00;99.90
23669;DHT22;12011;47.422;15.018;2023-01-08T14:31:04;4.00;99.90
23669;DHT22;12011;47.422;15.018;2023-01-08T14:33:36;3.90;99.90
23669;DHT22;12011;47.422;15.018;2023-01-08T14:36:09;3.80;99.90
23669;DHT22;12011;47.422;15.018;2023-01-08T14:38:39;3.60;99.90
23669;DHT22;12011;47.422;15.018;2023-01-08T14:41:19;3.60;99.90
23669;DHT22;12011;47.422;15.018;2023-01-08T14:44:16;3.40;99.90
23669;DHT22;12011;47.422;15.018;2023-01-08T14:46:46;3.40;99.90
23669;DHT22;12011;47.422;15.018;2023-01-08T14:49:22;3.40;99.90
23669;DHT22;12011;47.422;15.018;2023-01-08T14:51:58;3.30;99.90
23669;DHT22;12011;47.422;15.018;2023-01-08T14:54:32;3.10;99.90
23669;DHT22;12011;47.422;15.018;2023-01-08T14:57:04;3.10;99.90
23669;DHT22;12011;47.422;15.018;2023-01-08T14:59:36;3.00;99.90
23669;DHT22;12011;47.422;15.018;2023-01-08T15:02:21;2.80;99.90
23669;DHT22;12011;47.422;15.018;2023-01-08T15:05:03;2.60;99.90
23669;DHT22;12011;47.422;15.018;2023-01-08T15:07:56;2.20;99.90
23669;DHT22;12011;47.422;15.018;2023-01-08T15:10:38;1.80;99.90
23669;DHT22;12011;47.422;15.018;2023-01-08T15:13:21;1.70;99.90
23669;DHT22;12011;47.422;15.018;2023-01-08T15:15:55;1.60;99.90
23669;DHT22;12011;47.422;15.018;2023-01-08T15:18:26;1.50;99.90
23669;DHT22;12011;47.422;15.018;2023-01-08T15:20:56;1.50;99.90
23669;DHT22;12011;47.422;15.018;2023-01-08T15:23:38;1.40;99.90
23669;DHT22;12011;47.422;15.018;2023-01-08T15:26:10;1.40;99.90
23669;DHT22;12011;47.422;15.018;2023-01-08T15:28:48;1.30;99.90
23669;DHT22;12011;47.422;15.018;2023-01-08T15:31:24;1.30;99.90
23669;DHT22;12011;47.422;15.018;2023-01-08T15:33:55;1.30;99.90
23669;DHT22;12011;47.422;15.018;2023-01-08T15:36:26;1.10;99.90
23669;DHT22;12011;47.422;15.018;2023-01-08T15:38:58;1.10;99.90
23669;DHT22;12011;47.422;15.018;2023-01-08T15:41:34;1.10;99.90
23669;DHT22;12011;47.422;15.018;2023-01-08T15:44:16;1.10;99.90
23669;DHT22;12011;47.422;15.018;2023-01-08T15:46:46;1.10;99.90
23669;DHT22;12011;47.422;15.018;2023-01-08T15:49:15;1.20;99.90
23669;DHT22;12011;47.422;15.018;2023-01-08T15:51:48;1.10;99.90
23669;DHT22;12011;47.422;15.018;2023-01-08T15:54:24;1.00;99.90
23669;DHT22;12011;47.422;15.018;2023-01-08T15:56:54;1.00;99.90
23669;DHT22;12011;47.422;15.018;2023-01-08T15:59:23;1.10;99.90
23669;DHT22;12011;47.422;15.018;2023-01-08T16:01:53;1.00;99.90
23669;DHT22;12011;47.422;15.018;2023-01-08T16:04:22;1.00;99.90
23669;DHT22;12011;47.422;15.018;2023-01-08T16:06:52;1.10;99.90
23669;DHT22;12011;47.422;15.018;2023-01-08T16:09:24;1.10;99.90
23669;DHT22;12011;47.422;15.018;2023-01-08T16:11:53;1.10;99.90